createdAt,value
2017-10-30T00:01:59.325Z,3.92
2017-10-30T00:04:25.558Z,3.50
2017-10-30T00:06:51.815Z,3.35
2017-10-30T00:09:18.077Z,3.20
2017-10-30T00:11:45.084Z,4.32
2017-10-30T00:14:11.333Z,3.42
2017-10-30T00:16:38.344Z,3.35
2017-10-30T00:19:04.646Z,2.53
2017-10-30T00:21:30.913Z,3.60
2017-10-30T00:23:57.141Z,3.40
2017-10-30T00:26:23.384Z,3.25
2017-10-30T00:28:49.647Z,3.30
2017-10-30T00:31:15.916Z,2.67
2017-10-30T00:33:42.166Z,4.03
2017-10-30T00:36:08.415Z,4.40
2017-10-30T00:38:34.727Z,3.97
2017-10-30T00:41:01.733Z,3.72
2017-10-30T00:43:27.967Z,4.45
2017-10-30T00:45:54.197Z,3.60
2017-10-30T00:48:20.436Z,3.40
2017-10-30T00:50:46.694Z,4.65
2017-10-30T00:53:12.950Z,3.53
2017-10-30T00:55:39.216Z,3.42
2017-10-30T00:58:05.457Z,3.78
2017-10-30T01:00:32.702Z,3.42
2017-10-30T01:02:58.931Z,2.45
2017-10-30T01:05:25.425Z,3.85
2017-10-30T01:07:51.706Z,3.75
2017-10-30T01:10:18.694Z,4.97
2017-10-30T01:12:44.932Z,3.28
2017-10-30T01:15:11.176Z,3.53
2017-10-30T01:17:37.449Z,3.17
2017-10-30T01:20:03.728Z,3.97
2017-10-30T01:22:30.117Z,4.07
2017-10-30T01:24:56.366Z,3.62
2017-10-30T01:27:22.595Z,3.17
2017-10-30T01:29:48.830Z,3.37
2017-10-30T01:32:15.153Z,3.83
2017-10-30T01:34:41.384Z,3.85
2017-10-30T01:37:07.668Z,4.10
2017-10-30T01:39:33.958Z,3.75
2017-10-30T01:42:00.204Z,3.17
2017-10-30T01:44:27.218Z,3.33
2017-10-30T01:46:53.478Z,2.97
2017-10-30T01:49:20.450Z,4.32
2017-10-30T01:51:46.747Z,3.67
2017-10-30T01:54:13.773Z,3.12
2017-10-30T01:56:40.831Z,5.37
2017-10-30T01:59:07.830Z,3.50
2017-10-30T02:01:34.104Z,4.20
2017-10-30T02:04:00.362Z,2.85
2017-10-30T02:06:26.572Z,3.87
2017-10-30T02:08:53.589Z,4.22
2017-10-30T02:11:19.834Z,4.43
2017-10-30T02:13:46.831Z,4.18
2017-10-30T02:16:13.094Z,4.03
2017-10-30T02:18:39.376Z,6.25
2017-10-30T02:21:05.686Z,3.92
2017-10-30T02:23:31.972Z,4.53
2017-10-30T02:25:58.246Z,5.62
2017-10-30T02:28:24.537Z,3.25
2017-10-30T02:30:50.822Z,3.70
2017-10-30T02:33:17.100Z,4.10
2017-10-30T02:35:44.110Z,4.53
2017-10-30T02:38:11.128Z,4.70
2017-10-30T02:40:37.420Z,4.20
2017-10-30T02:43:04.439Z,3.97
2017-10-30T02:45:30.727Z,4.28
2017-10-30T02:47:57.003Z,4.15
2017-10-30T02:50:23.272Z,5.50
2017-10-30T02:52:49.555Z,4.93
2017-10-30T02:55:15.802Z,4.10
2017-10-30T02:57:42.829Z,4.37
2017-10-30T03:00:09.110Z,4.00
2017-10-30T03:02:35.396Z,4.07
2017-10-30T03:05:01.651Z,4.45
2017-10-30T03:07:27.916Z,4.93
2017-10-30T03:09:54.198Z,4.05
2017-10-30T03:12:21.230Z,3.53
2017-10-30T03:14:48.261Z,4.70
2017-10-30T03:17:14.555Z,4.55
2017-10-30T03:19:40.917Z,3.80
2017-10-30T03:22:07.194Z,5.28
2017-10-30T03:24:33.490Z,4.72
2017-10-30T03:27:00.513Z,5.00
2017-10-30T03:29:26.811Z,4.45
2017-10-30T03:31:55.310Z,4.47
2017-10-30T03:34:23.592Z,4.22
2017-10-30T03:36:49.859Z,4.95
2017-10-30T03:39:16.212Z,5.37
2017-10-30T03:41:42.463Z,4.43
2017-10-30T03:44:08.737Z,5.18
2017-10-30T03:46:35.737Z,4.68
2017-10-30T03:49:02.013Z,4.43
2017-10-30T03:51:28.282Z,4.90
2017-10-30T03:53:54.536Z,4.57
2017-10-30T03:56:20.805Z,4.97
2017-10-30T03:58:47.092Z,5.40
2017-10-30T04:01:13.343Z,4.68
2017-10-30T04:03:40.372Z,5.18
2017-10-30T04:06:06.632Z,4.30
2017-10-30T04:08:32.901Z,4.65
2017-10-30T04:10:59.163Z,5.22
2017-10-30T04:13:26.141Z,4.50
2017-10-30T04:15:52.423Z,4.47
2017-10-30T04:18:18.683Z,4.97
2017-10-30T04:20:44.947Z,4.03
2017-10-30T04:23:11.256Z,5.43
2017-10-30T04:25:37.491Z,5.43
2017-10-30T04:28:03.719Z,4.65
2017-10-30T04:30:29.965Z,4.12
2017-10-30T04:32:56.227Z,4.28
2017-10-30T04:35:23.218Z,3.80
2017-10-30T04:37:49.440Z,5.00
2017-10-30T04:40:16.827Z,5.53
2017-10-30T04:42:43.231Z,5.07
2017-10-30T04:45:09.481Z,5.47
2017-10-30T04:47:35.724Z,4.35
2017-10-30T04:50:01.982Z,4.57
2017-10-30T04:52:28.182Z,5.15
2017-10-30T04:54:54.417Z,7.10
2017-10-30T04:57:21.395Z,6.22
2017-10-30T04:59:47.648Z,5.25
2017-10-30T05:02:13.870Z,4.75
2017-10-30T05:04:40.141Z,4.30
2017-10-30T05:07:07.087Z,3.85
2017-10-30T05:09:34.093Z,3.70
2017-10-30T05:12:00.345Z,4.47
2017-10-30T05:14:26.562Z,4.82
2017-10-30T05:16:52.816Z,4.32
2017-10-30T05:19:19.777Z,4.75
2017-10-30T05:21:46.046Z,5.60
2017-10-30T05:24:12.278Z,4.20
2017-10-30T05:26:38.527Z,4.20
2017-10-30T05:29:05.525Z,4.32
2017-10-30T05:31:31.776Z,3.95
2017-10-30T05:33:58.975Z,3.87
2017-10-30T05:36:25.242Z,3.65
2017-10-30T05:38:51.497Z,3.80
2017-10-30T05:41:18.901Z,4.75
2017-10-30T05:43:46.046Z,4.43
2017-10-30T05:46:12.303Z,4.32
2017-10-30T05:48:38.543Z,4.70
2017-10-30T05:51:04.795Z,4.15
2017-10-30T05:53:31.752Z,3.87
2017-10-30T05:55:59.076Z,3.78
2017-10-30T05:58:26.036Z,4.43
2017-10-30T06:00:52.464Z,3.65
2017-10-30T06:03:19.436Z,3.90
2017-10-30T06:05:45.668Z,4.50
2017-10-30T06:08:11.883Z,3.97
2017-10-30T06:10:38.152Z,4.20
2017-10-30T06:13:04.402Z,4.65
2017-10-30T06:15:30.643Z,3.75
2017-10-30T06:17:57.632Z,4.00
2017-10-30T06:20:23.974Z,4.45
2017-10-30T06:22:50.284Z,5.03
2017-10-30T06:25:16.522Z,4.40
2017-10-30T06:27:42.771Z,4.25
2017-10-30T06:30:08.993Z,4.20
2017-10-30T06:32:35.231Z,4.62
2017-10-30T06:35:01.475Z,4.57
2017-10-30T06:37:28.504Z,4.62
2017-10-30T06:39:56.039Z,3.90
2017-10-30T06:42:22.319Z,5.15
2017-10-30T06:44:49.292Z,4.32
2017-10-30T06:47:15.528Z,4.15
2017-10-30T06:49:41.820Z,5.05
2017-10-30T06:52:08.822Z,4.07
2017-10-30T06:54:35.053Z,4.18
2017-10-30T06:57:01.308Z,4.00
2017-10-30T06:59:28.284Z,5.25
2017-10-30T07:01:54.525Z,4.55
2017-10-30T07:04:20.766Z,4.90
2017-10-30T07:06:47.006Z,3.67
2017-10-30T07:09:13.240Z,5.30
2017-10-30T07:11:39.511Z,3.95
2017-10-30T07:14:05.795Z,4.10
2017-10-30T07:16:32.062Z,5.80
2017-10-30T07:18:58.358Z,4.53
2017-10-30T07:21:24.644Z,4.32
2017-10-30T07:23:50.942Z,5.05
2017-10-30T07:26:17.278Z,4.75
2017-10-30T07:28:43.592Z,5.68
2017-10-30T07:31:10.588Z,5.40
2017-10-30T07:33:36.838Z,3.85
2017-10-30T07:36:03.076Z,3.87
2017-10-30T07:38:30.053Z,4.40
2017-10-30T07:40:56.325Z,4.68
2017-10-30T07:43:22.583Z,4.50
2017-10-30T07:45:49.585Z,5.93
2017-10-30T07:48:15.874Z,5.95
2017-10-30T07:50:42.157Z,5.30
2017-10-30T07:53:08.462Z,5.70
2017-10-30T07:55:34.766Z,4.70
2017-10-30T07:58:01.048Z,4.82
2017-10-30T08:00:27.331Z,7.15
2017-10-30T08:02:53.642Z,4.75
2017-10-30T08:05:19.916Z,5.07
2017-10-30T08:07:46.217Z,6.55
2017-10-30T08:10:12.508Z,5.05
2017-10-30T08:12:38.803Z,5.40
2017-10-30T08:15:05.080Z,5.22
2017-10-30T08:17:31.376Z,5.35
2017-10-30T08:19:57.674Z,4.62
2017-10-30T08:22:23.968Z,4.87
2017-10-30T08:24:50.264Z,5.18
2017-10-30T08:27:16.510Z,5.20
2017-10-30T08:29:43.534Z,5.93
2017-10-30T08:32:09.778Z,5.12
2017-10-30T08:34:36.828Z,5.62
2017-10-30T08:37:03.887Z,5.00
2017-10-30T08:39:30.167Z,5.32
2017-10-30T08:41:56.461Z,6.12
2017-10-30T08:44:22.748Z,5.05
2017-10-30T08:46:49.772Z,5.30
2017-10-30T08:49:16.184Z,5.12
2017-10-30T08:51:42.468Z,5.10
2017-10-30T08:54:08.778Z,5.07
2017-10-30T08:56:35.785Z,4.87
2017-10-30T08:59:02.083Z,6.75
2017-10-30T09:01:28.367Z,5.20
2017-10-30T09:03:54.660Z,5.90
2017-10-30T09:06:20.950Z,4.57
2017-10-30T09:08:47.306Z,5.93
2017-10-30T09:11:13.590Z,5.57
2017-10-30T09:13:40.620Z,4.97
2017-10-30T09:16:06.885Z,5.30
2017-10-30T09:18:33.186Z,5.18
2017-10-30T09:20:59.677Z,4.70
2017-10-30T09:23:25.979Z,4.57
2017-10-30T09:25:52.303Z,6.60
2017-10-30T09:28:18.607Z,4.65
2017-10-30T09:30:45.645Z,3.42
2017-10-30T09:33:11.914Z,3.83
2017-10-30T09:35:38.209Z,4.10
2017-10-30T09:38:05.229Z,5.05
2017-10-30T09:40:31.512Z,4.75
2017-10-30T09:42:57.778Z,5.53
2017-10-30T09:45:24.081Z,4.90
2017-10-30T09:47:50.408Z,4.32
2017-10-30T09:50:16.755Z,5.18
2017-10-30T09:52:43.066Z,4.45
2017-10-30T09:55:09.391Z,4.75
2017-10-30T09:57:35.663Z,4.78
2017-10-30T10:00:01.949Z,3.90
2017-10-30T10:02:28.249Z,5.10
2017-10-30T10:04:55.289Z,3.92
2017-10-30T10:07:22.383Z,4.60
2017-10-30T10:09:48.670Z,5.07
2017-10-30T10:12:15.680Z,5.43
2017-10-30T10:14:41.989Z,4.10
2017-10-30T10:17:08.299Z,5.37
2017-10-30T10:19:34.898Z,4.60
2017-10-30T10:22:01.957Z,4.78
2017-10-30T10:24:28.280Z,4.32
2017-10-30T10:26:55.308Z,3.92
2017-10-30T10:29:21.568Z,5.30
2017-10-30T10:31:47.871Z,4.10
2017-10-30T10:34:14.859Z,4.65
2017-10-30T10:36:41.183Z,3.90
2017-10-30T10:39:07.464Z,4.40
2017-10-30T10:41:33.764Z,3.83
2017-10-30T10:44:00.041Z,4.05
2017-10-30T10:46:27.097Z,3.72
2017-10-30T10:48:54.488Z,4.53
2017-10-30T10:51:21.482Z,4.00
2017-10-30T10:53:50.659Z,4.65
2017-10-30T10:56:17.488Z,4.15
2017-10-30T10:58:43.786Z,4.10
2017-10-30T11:01:10.064Z,4.22
2017-10-30T11:03:37.091Z,5.35
2017-10-30T11:06:03.387Z,4.28
2017-10-30T11:08:29.652Z,4.00
2017-10-30T11:10:55.937Z,3.62
2017-10-30T11:13:22.182Z,4.03
2017-10-30T11:15:48.561Z,3.50
2017-10-30T11:18:15.610Z,4.20
2017-10-30T11:20:41.937Z,3.30
2017-10-30T11:23:08.227Z,4.43
2017-10-30T11:25:34.528Z,3.47
2017-10-30T11:28:00.804Z,3.42
2017-10-30T11:30:27.061Z,3.05
2017-10-30T11:32:53.326Z,4.00
2017-10-30T11:35:19.609Z,3.00
2017-10-30T11:37:45.876Z,3.92
2017-10-30T11:40:12.152Z,3.60
2017-10-30T11:42:39.181Z,3.22
2017-10-30T11:45:05.484Z,2.75
2017-10-30T11:47:31.752Z,2.87
2017-10-30T11:49:58.762Z,3.95
2017-10-30T11:52:25.045Z,3.45
2017-10-30T11:54:51.292Z,3.03
2017-10-30T11:57:17.572Z,3.12
2017-10-30T11:59:44.587Z,3.03
2017-10-30T12:02:10.867Z,3.47
2017-10-30T12:04:37.121Z,3.42
2017-10-30T12:07:03.407Z,2.58
2017-10-30T12:09:30.438Z,2.78
2017-10-30T12:11:56.690Z,3.50
2017-10-30T12:14:23.672Z,2.67
2017-10-30T12:16:49.932Z,3.83
2017-10-30T12:19:16.177Z,3.50
2017-10-30T12:21:43.197Z,2.67
2017-10-30T12:24:09.483Z,3.58
2017-10-30T12:26:35.758Z,2.95
2017-10-30T12:29:02.024Z,2.62
2017-10-30T12:31:28.281Z,2.22
2017-10-30T12:33:54.554Z,2.42
2017-10-30T12:36:21.690Z,3.30
2017-10-30T12:38:47.981Z,2.37
2017-10-30T12:41:14.232Z,3.37
2017-10-30T12:43:40.500Z,4.28
2017-10-30T12:46:06.890Z,2.45
2017-10-30T12:48:33.166Z,2.70
2017-10-30T12:50:59.409Z,2.35
2017-10-30T12:53:25.654Z,2.40
2017-10-30T12:55:51.901Z,2.08
2017-10-30T12:58:18.193Z,2.45
2017-10-30T13:00:44.462Z,2.50
2017-10-30T13:03:10.730Z,2.97
2017-10-30T13:05:37.032Z,2.58
2017-10-30T13:08:03.345Z,3.35
2017-10-30T13:10:29.602Z,3.22
2017-10-30T13:12:56.610Z,2.37
2017-10-30T13:15:22.906Z,2.30
2017-10-30T13:17:49.185Z,3.12
2017-10-30T13:20:15.471Z,3.37
2017-10-30T13:22:41.753Z,2.75
2017-10-30T13:25:08.782Z,2.72
2017-10-30T13:27:35.035Z,2.30
2017-10-30T13:30:02.099Z,2.22
2017-10-30T13:32:28.367Z,2.20
2017-10-30T13:34:54.650Z,1.98
2017-10-30T13:37:20.919Z,1.92
2017-10-30T13:39:47.189Z,2.45
2017-10-30T13:42:14.171Z,2.78
2017-10-30T13:44:40.425Z,2.20
2017-10-30T13:47:06.652Z,2.47
2017-10-30T13:49:33.006Z,2.53
2017-10-30T13:52:00.030Z,2.50
2017-10-30T13:54:26.318Z,2.78
2017-10-30T13:56:52.558Z,2.87
2017-10-30T13:59:18.801Z,3.05
2017-10-30T14:01:45.037Z,2.08
2017-10-30T14:04:11.612Z,3.10
2017-10-30T14:06:37.892Z,2.58
2017-10-30T14:09:04.196Z,2.80
2017-10-30T14:11:30.449Z,3.40
2017-10-30T14:13:56.705Z,2.72
2017-10-30T14:16:23.200Z,2.55
2017-10-30T14:18:49.473Z,2.67
2017-10-30T14:21:15.781Z,2.35
2017-10-30T14:23:42.033Z,3.67
2017-10-30T14:26:10.262Z,2.60
2017-10-30T14:28:36.581Z,2.40
2017-10-30T14:31:02.879Z,2.60
2017-10-30T14:33:29.188Z,2.58
2017-10-30T14:35:55.467Z,2.25
2017-10-30T14:38:21.751Z,2.58
2017-10-30T14:40:48.030Z,1.98
2017-10-30T14:43:14.305Z,2.62
2017-10-30T14:45:40.621Z,2.28
2017-10-30T14:48:07.691Z,3.10
2017-10-30T14:50:34.009Z,2.50
2017-10-30T14:53:00.282Z,4.30
2017-10-30T14:55:26.587Z,2.37
2017-10-30T14:57:52.881Z,2.95
2017-10-30T15:00:19.953Z,2.25
2017-10-30T15:02:46.288Z,3.47
2017-10-30T15:05:12.608Z,2.60
2017-10-30T15:07:38.884Z,2.65
2017-10-30T15:10:05.179Z,2.42
2017-10-30T15:12:31.487Z,2.85
2017-10-30T15:14:57.763Z,2.67
2017-10-30T15:17:24.778Z,3.90
2017-10-30T15:19:51.081Z,2.15
2017-10-30T15:22:17.359Z,2.62
2017-10-30T15:24:43.622Z,2.70
2017-10-30T15:27:10.621Z,3.25
2017-10-30T15:29:36.898Z,2.83
2017-10-30T15:32:03.958Z,3.30
2017-10-30T15:34:30.200Z,2.58
2017-10-30T15:36:56.492Z,3.00
2017-10-30T15:39:23.506Z,3.30
2017-10-30T15:41:49.798Z,3.62
2017-10-30T15:44:16.083Z,3.30
2017-10-30T15:46:42.368Z,3.25
2017-10-30T15:49:08.678Z,2.62
2017-10-30T15:51:34.929Z,3.33
2017-10-30T15:54:01.208Z,6.00
2017-10-30T15:56:28.262Z,5.75
2017-10-30T15:58:55.261Z,4.20
2017-10-30T16:01:21.530Z,5.10
2017-10-30T16:03:48.536Z,4.30
2017-10-30T16:06:14.807Z,3.17
2017-10-30T16:08:41.807Z,3.22
2017-10-30T16:11:08.075Z,3.42
2017-10-30T16:13:35.053Z,4.07
2017-10-30T16:16:01.315Z,3.08
2017-10-30T16:18:27.599Z,3.42
2017-10-30T16:20:53.890Z,3.70
2017-10-30T16:23:20.852Z,3.25
2017-10-30T16:25:47.111Z,3.78
2017-10-30T16:28:13.407Z,3.45
2017-10-30T16:30:39.705Z,4.40
2017-10-30T16:33:05.960Z,3.80
2017-10-30T16:35:32.939Z,3.75
2017-10-30T16:37:59.234Z,3.67
2017-10-30T16:40:26.260Z,3.58
2017-10-30T16:42:53.316Z,3.20
2017-10-30T16:45:20.336Z,3.30
2017-10-30T16:47:46.723Z,2.92
2017-10-30T16:50:12.992Z,4.57
2017-10-30T16:52:39.241Z,3.85
2017-10-30T16:55:06.283Z,3.50
2017-10-30T16:57:33.321Z,2.80
2017-10-30T16:59:59.616Z,3.70
2017-10-30T17:02:25.879Z,3.08
2017-10-30T17:04:59.018Z,3.05
2017-10-30T17:07:25.276Z,3.62
2017-10-30T17:09:51.512Z,3.72
2017-10-30T17:12:17.761Z,3.00
2017-10-30T17:14:44.746Z,3.08
2017-10-30T17:17:11.010Z,3.55
2017-10-30T17:19:37.252Z,3.65
2017-10-30T17:22:04.241Z,3.95
2017-10-30T17:24:30.532Z,3.30
2017-10-30T17:26:57.528Z,2.75
2017-10-30T17:29:23.778Z,3.60
2017-10-30T17:31:50.027Z,4.03
2017-10-30T17:34:17.036Z,3.95
2017-10-30T17:36:43.289Z,4.50
2017-10-30T17:39:09.572Z,3.35
2017-10-30T17:41:35.818Z,3.45
2017-10-30T17:44:02.099Z,3.83
2017-10-30T17:46:29.101Z,3.80
2017-10-30T17:48:55.398Z,3.47
2017-10-30T17:51:21.637Z,3.45
2017-10-30T17:53:47.844Z,3.55
2017-10-30T17:56:14.103Z,3.33
2017-10-30T17:58:40.367Z,3.83
2017-10-30T18:01:07.351Z,4.32
2017-10-30T18:03:33.614Z,5.82
2017-10-30T18:05:59.899Z,7.97
2017-10-30T18:08:26.376Z,8.02
2017-10-30T18:10:52.603Z,5.10
2017-10-30T18:13:18.867Z,3.83
2017-10-30T18:15:45.151Z,4.80
2017-10-30T18:18:11.442Z,5.20
2017-10-30T18:20:37.718Z,4.35
2017-10-30T18:23:03.986Z,4.18
2017-10-30T18:25:30.227Z,3.60
2017-10-30T18:27:56.475Z,4.15
2017-10-30T18:30:22.766Z,4.95
2017-10-30T18:32:49.023Z,3.65
2017-10-30T18:35:16.026Z,4.20
2017-10-30T18:37:42.270Z,4.00
2017-10-30T18:40:08.528Z,4.43
2017-10-30T18:42:34.786Z,4.05
2017-10-30T18:45:01.043Z,4.03
2017-10-30T18:47:30.037Z,3.20
2017-10-30T18:49:56.295Z,4.45
2017-10-30T18:52:22.591Z,4.68
2017-10-30T18:54:48.905Z,5.10
2017-10-30T18:57:15.904Z,4.28
2017-10-30T18:59:42.205Z,4.80
2017-10-30T19:02:08.510Z,5.07
2017-10-30T19:04:34.934Z,5.40
2017-10-30T19:07:01.221Z,4.45
2017-10-30T19:09:27.525Z,3.92
2017-10-30T19:11:54.566Z,5.30
2017-10-30T19:14:20.901Z,4.05
2017-10-30T19:16:47.235Z,4.30
2017-10-30T19:19:13.603Z,4.62
2017-10-30T19:21:40.715Z,3.83
2017-10-30T19:24:07.103Z,4.28
2017-10-30T19:26:34.136Z,4.78
2017-10-30T19:29:01.204Z,5.07
2017-10-30T19:31:27.489Z,4.35
2017-10-30T19:33:53.759Z,5.15
2017-10-30T19:36:21.825Z,4.90
2017-10-30T19:38:48.151Z,4.87
2017-10-30T19:41:15.195Z,5.03
2017-10-30T19:43:42.214Z,4.95
2017-10-30T19:46:08.491Z,5.35
2017-10-30T19:48:35.794Z,5.37
2017-10-30T19:51:02.158Z,4.97
2017-10-30T19:53:29.406Z,4.05
2017-10-30T19:55:55.708Z,4.62
2017-10-30T19:58:22.005Z,4.80
2017-10-30T20:00:48.361Z,4.18
2017-10-30T20:03:14.651Z,5.00
2017-10-30T20:05:47.050Z,6.35
2017-10-30T20:08:19.323Z,10.30
2017-10-30T20:10:51.702Z,11.07
2017-10-30T20:13:18.042Z,6.72
2017-10-30T20:15:45.181Z,9.82
2017-10-30T20:18:11.551Z,7.15
2017-10-30T20:20:37.898Z,7.30
2017-10-30T20:23:04.921Z,5.50
2017-10-30T20:25:31.256Z,9.32
2017-10-30T20:27:57.589Z,6.30
2017-10-30T20:30:23.916Z,5.72
2017-10-30T20:32:50.284Z,6.28
2017-10-30T20:35:16.782Z,5.95
2017-10-30T20:37:43.167Z,5.65
2017-10-30T20:40:10.249Z,5.95
2017-10-30T20:42:36.642Z,4.05
2017-10-30T20:45:03.733Z,4.75
2017-10-30T20:47:30.036Z,5.30
2017-10-30T20:49:57.135Z,5.97
2017-10-30T20:52:23.472Z,5.53
2017-10-30T20:54:49.807Z,5.35
2017-10-30T20:57:16.143Z,6.15
2017-10-30T20:59:43.211Z,7.00
2017-10-30T21:02:10.271Z,6.95
2017-10-30T21:04:36.552Z,7.70
2017-10-30T21:07:02.857Z,6.60
2017-10-30T21:09:29.360Z,6.50
2017-10-30T21:11:55.619Z,6.80
2017-10-30T21:14:21.941Z,7.07
2017-10-30T21:16:48.265Z,7.05
2017-10-30T21:19:21.606Z,7.12
2017-10-30T21:21:47.792Z,8.00
2017-10-30T21:24:14.098Z,7.30
2017-10-30T21:26:40.388Z,6.75
2017-10-30T21:29:06.650Z,6.78
2017-10-30T21:31:32.939Z,7.57
2017-10-30T21:33:59.204Z,7.60
2017-10-30T21:36:25.501Z,6.78
2017-10-30T21:38:51.776Z,5.97
2017-10-30T21:41:18.117Z,7.15
2017-10-30T21:43:44.421Z,7.00
2017-10-30T21:46:10.669Z,5.50
2017-10-30T21:48:36.925Z,5.70
2017-10-30T21:51:03.185Z,6.65
2017-10-30T21:53:30.213Z,6.72
2017-10-30T21:55:56.481Z,7.12
2017-10-30T21:58:22.753Z,5.93
2017-10-30T22:00:49.004Z,5.43
2017-10-30T22:03:16.044Z,6.53
2017-10-30T22:05:42.312Z,5.85
2017-10-30T22:08:08.605Z,5.25
2017-10-30T22:10:35.603Z,5.57
2017-10-30T22:13:01.898Z,5.30
2017-10-30T22:15:28.174Z,5.87
2017-10-30T22:17:57.495Z,6.22
2017-10-30T22:20:23.740Z,6.70
2017-10-30T22:22:50.785Z,6.72
2017-10-30T22:25:17.769Z,6.15
2017-10-30T22:27:44.108Z,5.25
2017-10-30T22:30:10.399Z,6.85
2017-10-30T22:32:36.640Z,5.78
2017-10-30T22:35:02.895Z,5.60
2017-10-30T22:37:29.217Z,5.32
2017-10-30T22:39:55.532Z,5.45
2017-10-30T22:42:21.860Z,4.78
2017-10-30T22:44:48.075Z,4.95
2017-10-30T22:47:14.346Z,6.18
2017-10-30T22:49:40.601Z,7.90
2017-10-30T22:52:07.615Z,5.82
2017-10-30T22:54:33.894Z,5.43
2017-10-30T22:57:00.150Z,6.10
2017-10-30T22:59:26.448Z,6.68
2017-10-30T23:01:52.698Z,7.22
2017-10-30T23:04:18.948Z,9.93
2017-10-30T23:06:45.207Z,6.28
2017-10-30T23:09:11.504Z,5.00
2017-10-30T23:11:37.760Z,5.47
2017-10-30T23:14:05.590Z,6.25
2017-10-30T23:16:31.843Z,6.43
2017-10-30T23:18:58.129Z,6.12
2017-10-30T23:21:24.306Z,5.32
2017-10-30T23:23:50.562Z,5.35
2017-10-30T23:26:16.788Z,7.03
2017-10-30T23:28:43.054Z,5.50
2017-10-30T23:31:09.323Z,5.50
2017-10-30T23:33:36.327Z,6.70
2017-10-30T23:36:02.581Z,7.10
2017-10-30T23:38:28.808Z,6.25
2017-10-30T23:40:55.154Z,6.45
2017-10-30T23:43:22.118Z,5.90
2017-10-30T23:45:48.449Z,6.70
2017-10-30T23:48:14.700Z,6.12
2017-10-30T23:50:40.937Z,5.93
2017-10-30T23:53:07.184Z,5.87
2017-10-30T23:55:33.457Z,6.72
2017-10-30T23:57:59.690Z,6.05
